createdAt,value
2022-07-26T00:00:47.175Z,2.57
2022-07-26T00:03:14.413Z,2.50
2022-07-26T00:05:41.657Z,2.07
2022-07-26T00:08:11.691Z,2.00
2022-07-26T00:10:49.632Z,2.20
2022-07-26T00:13:19.873Z,2.23
2022-07-26T00:15:49.165Z,2.30
2022-07-26T00:18:17.989Z,2.50
2022-07-26T00:20:45.141Z,2.50
2022-07-26T00:23:12.282Z,1.93
2022-07-26T00:25:39.550Z,2.27
2022-07-26T00:28:06.985Z,2.60
2022-07-26T00:30:36.829Z,2.40
2022-07-26T00:33:04.016Z,2.33
2022-07-26T00:35:31.498Z,2.20
2022-07-26T00:37:59.820Z,2.03
2022-07-26T00:40:27.035Z,2.33
2022-07-26T00:42:54.185Z,2.60
2022-07-26T00:45:22.051Z,2.17
2022-07-26T00:47:49.667Z,2.80
2022-07-26T00:50:19.225Z,1.70
2022-07-26T00:52:49.899Z,2.47
2022-07-26T00:55:18.425Z,2.43
2022-07-26T00:57:45.668Z,1.97
2022-07-26T01:00:21.540Z,2.60
2022-07-26T01:02:48.901Z,2.07
2022-07-26T01:05:17.327Z,2.20
2022-07-26T01:07:46.386Z,2.17
2022-07-26T01:10:13.541Z,2.17
2022-07-26T01:12:44.839Z,1.97
2022-07-26T01:15:15.704Z,2.57
2022-07-26T01:17:43.499Z,1.80
2022-07-26T01:20:12.943Z,1.83
2022-07-26T01:22:40.102Z,1.90
2022-07-26T01:25:08.285Z,1.50
2022-07-26T01:27:39.567Z,2.23
2022-07-26T01:30:11.763Z,1.80
2022-07-26T01:32:39.559Z,1.40
2022-07-26T01:35:07.782Z,1.30
2022-07-26T01:37:35.169Z,1.70
2022-07-26T01:40:04.210Z,1.23
2022-07-26T01:42:31.901Z,1.23
2022-07-26T01:44:59.111Z,1.10
2022-07-26T01:47:26.081Z,1.37
2022-07-26T01:49:53.309Z,1.17
2022-07-26T01:52:20.264Z,1.20
2022-07-26T01:54:47.413Z,1.23
2022-07-26T01:57:14.405Z,1.13
2022-07-26T01:59:41.466Z,1.13
2022-07-26T02:02:08.759Z,1.40
2022-07-26T02:04:54.390Z,1.23
2022-07-26T02:07:21.623Z,1.13
2022-07-26T02:09:48.695Z,1.00
2022-07-26T02:12:16.240Z,1.00
2022-07-26T02:14:43.347Z,1.30
2022-07-26T02:17:11.588Z,1.13
2022-07-26T02:19:38.589Z,1.23
2022-07-26T02:22:06.089Z,1.00
2022-07-26T02:24:33.264Z,1.47
2022-07-26T02:27:02.165Z,1.20
2022-07-26T02:29:29.565Z,1.00
2022-07-26T02:31:57.354Z,1.07
2022-07-26T02:34:24.713Z,1.13
2022-07-26T02:36:51.948Z,1.10
2022-07-26T02:39:19.455Z,1.10
2022-07-26T02:41:47.340Z,0.97
2022-07-26T02:44:14.294Z,1.20
2022-07-26T02:46:41.345Z,0.80
2022-07-26T02:49:08.373Z,1.10
2022-07-26T02:51:35.438Z,1.40
2022-07-26T02:54:02.380Z,0.90
2022-07-26T02:56:29.845Z,1.03
2022-07-26T02:58:56.880Z,1.00
2022-07-26T03:01:24.252Z,0.97
2022-07-26T03:03:51.636Z,1.03
2022-07-26T03:06:19.648Z,0.90
2022-07-26T03:08:48.317Z,1.10
2022-07-26T03:11:15.910Z,1.00
2022-07-26T03:13:42.857Z,1.20
2022-07-26T03:16:10.588Z,0.70
2022-07-26T03:18:37.773Z,1.23
2022-07-26T03:21:05.089Z,0.77
2022-07-26T03:23:33.742Z,1.00
2022-07-26T03:26:02.587Z,0.90
2022-07-26T03:28:32.057Z,0.93
2022-07-26T03:30:59.254Z,0.70
2022-07-26T03:33:26.477Z,1.23
2022-07-26T03:35:53.608Z,1.10
2022-07-26T03:38:22.195Z,1.10
2022-07-26T03:40:49.301Z,1.20
2022-07-26T03:43:17.413Z,1.40
2022-07-26T03:45:47.241Z,1.10
2022-07-26T03:48:14.991Z,1.00
2022-07-26T03:50:42.760Z,1.00
2022-07-26T03:53:09.770Z,1.30
2022-07-26T03:55:55.357Z,1.30
2022-07-26T03:58:22.780Z,0.80
2022-07-26T04:00:49.961Z,1.30
2022-07-26T04:03:16.997Z,1.30
2022-07-26T04:05:48.854Z,1.10
2022-07-26T04:08:16.884Z,0.73
2022-07-26T04:10:51.370Z,1.00
2022-07-26T04:13:19.998Z,1.10
2022-07-26T04:15:47.378Z,1.07
2022-07-26T04:18:14.793Z,1.47
2022-07-26T04:20:42.516Z,1.43
2022-07-26T04:23:11.293Z,1.20
2022-07-26T04:25:41.698Z,1.07
2022-07-26T04:28:10.222Z,1.43
2022-07-26T04:30:38.245Z,1.50
2022-07-26T04:33:06.488Z,1.43
2022-07-26T04:35:34.394Z,1.30
2022-07-26T04:38:04.771Z,1.03
2022-07-26T04:40:35.062Z,1.30
2022-07-26T04:43:09.984Z,1.30
2022-07-26T04:45:38.027Z,1.27
2022-07-26T04:48:05.803Z,1.20
2022-07-26T04:50:33.106Z,1.20
2022-07-26T04:53:05.262Z,1.40
2022-07-26T04:55:32.689Z,1.77
2022-07-26T04:57:59.605Z,1.30
2022-07-26T05:00:26.803Z,0.83
2022-07-26T05:02:59.920Z,1.17
2022-07-26T05:05:31.067Z,1.37
2022-07-26T05:08:03.645Z,1.07
2022-07-26T05:10:36.416Z,1.13
2022-07-26T05:13:05.982Z,1.40
2022-07-26T05:15:38.968Z,1.57
2022-07-26T05:18:10.493Z,1.77
2022-07-26T05:20:40.666Z,1.60
2022-07-26T05:23:08.095Z,1.57
2022-07-26T05:25:35.631Z,1.63
2022-07-26T05:28:02.828Z,1.80
2022-07-26T05:30:30.265Z,1.50
2022-07-26T05:32:57.683Z,2.00
2022-07-26T05:35:24.790Z,1.57
2022-07-26T05:37:51.729Z,1.70
2022-07-26T05:40:18.946Z,1.60
2022-07-26T05:42:45.912Z,1.70
2022-07-26T05:45:13.228Z,1.90
2022-07-26T05:47:40.707Z,1.27
2022-07-26T05:50:08.521Z,2.03
2022-07-26T05:52:35.930Z,1.60
2022-07-26T05:55:03.094Z,1.73
2022-07-26T05:57:30.139Z,1.97
2022-07-26T05:59:57.507Z,2.00
2022-07-26T06:02:24.936Z,1.70
2022-07-26T06:04:52.207Z,2.10
2022-07-26T06:07:19.274Z,1.80
2022-07-26T06:09:46.309Z,1.80
2022-07-26T06:12:13.782Z,2.40
2022-07-26T06:14:40.827Z,2.30
2022-07-26T06:17:07.879Z,2.10
2022-07-26T06:19:35.507Z,1.90
2022-07-26T06:22:02.509Z,2.03
2022-07-26T06:24:29.876Z,1.50
2022-07-26T06:27:04.988Z,1.70
2022-07-26T06:29:33.774Z,1.97
2022-07-26T06:32:01.057Z,1.97
2022-07-26T06:34:28.246Z,2.27
2022-07-26T06:36:55.282Z,2.17
2022-07-26T06:39:22.326Z,1.80
2022-07-26T06:41:49.340Z,1.67
2022-07-26T06:44:23.022Z,1.90
2022-07-26T06:46:50.241Z,1.90
2022-07-26T06:49:21.971Z,1.57
2022-07-26T06:51:50.032Z,2.00
2022-07-26T06:54:17.073Z,2.30
2022-07-26T06:56:44.679Z,1.80
2022-07-26T06:59:11.688Z,2.10
2022-07-26T07:01:58.085Z,1.60
2022-07-26T07:04:26.157Z,1.97
2022-07-26T07:06:53.357Z,1.93
2022-07-26T07:09:22.125Z,2.00
2022-07-26T07:11:51.820Z,1.57
2022-07-26T07:14:25.998Z,1.90
2022-07-26T07:16:53.095Z,1.93
2022-07-26T07:19:20.081Z,1.60
2022-07-26T07:21:47.315Z,1.80
2022-07-26T07:24:14.842Z,1.50
2022-07-26T07:26:42.489Z,1.83
2022-07-26T07:29:12.765Z,1.33
2022-07-26T07:31:48.851Z,1.53
2022-07-26T07:34:22.801Z,1.70
2022-07-26T07:36:52.149Z,1.90
2022-07-26T07:39:20.128Z,1.73
2022-07-26T07:41:47.279Z,1.40
2022-07-26T07:44:14.661Z,1.30
2022-07-26T07:46:41.980Z,1.40
2022-07-26T07:49:11.283Z,1.50
2022-07-26T07:51:38.760Z,1.90
2022-07-26T07:54:06.935Z,1.27
2022-07-26T07:56:34.758Z,1.40
2022-07-26T07:59:01.700Z,1.40
2022-07-26T08:01:39.791Z,1.57
2022-07-26T08:07:02.640Z,1.40
2022-07-26T08:09:29.649Z,2.70
2022-07-26T08:12:00.982Z,1.80
2022-07-26T08:14:29.285Z,1.30
2022-07-26T08:16:56.422Z,1.40
2022-07-26T08:19:23.483Z,1.80
2022-07-26T08:21:51.827Z,1.53
2022-07-26T08:24:19.993Z,1.57
2022-07-26T08:26:47.132Z,1.60
2022-07-26T08:29:14.743Z,1.60
2022-07-26T08:31:42.148Z,1.50
2022-07-26T08:34:09.183Z,1.37
2022-07-26T08:36:36.181Z,1.80
2022-07-26T08:39:04.086Z,1.23
2022-07-26T08:41:31.550Z,1.80
2022-07-26T08:44:07.187Z,1.37
2022-07-26T08:46:37.660Z,1.30
2022-07-26T08:49:11.853Z,1.07
2022-07-26T08:51:45.150Z,1.43
2022-07-26T08:54:15.243Z,1.30
2022-07-26T08:56:51.723Z,1.37
2022-07-26T08:59:22.306Z,1.57
2022-07-26T09:01:58.922Z,1.50
2022-07-26T09:04:33.254Z,1.27
2022-07-26T09:07:18.329Z,1.13
2022-07-26T09:10:07.627Z,1.53
2022-07-26T09:12:35.538Z,1.63
2022-07-26T09:15:05.650Z,1.40
2022-07-26T09:17:49.045Z,1.17
2022-07-26T09:20:17.411Z,1.20
2022-07-26T09:23:07.677Z,1.40
2022-07-26T09:25:42.061Z,1.33
2022-07-26T09:28:31.220Z,1.10
2022-07-26T09:31:05.915Z,1.27
2022-07-26T09:33:48.242Z,1.13
2022-07-26T09:36:16.730Z,1.10
2022-07-26T09:38:50.590Z,1.30
2022-07-26T09:41:30.528Z,1.00
2022-07-26T09:44:06.712Z,1.50
2022-07-26T09:46:37.808Z,1.50
2022-07-26T09:49:20.579Z,1.77
2022-07-26T09:51:50.559Z,1.20
2022-07-26T09:54:30.159Z,1.70
2022-07-26T09:56:57.887Z,1.30
2022-07-26T09:59:28.917Z,1.20
2022-07-26T10:02:00.087Z,1.57
2022-07-26T10:04:27.533Z,1.30
2022-07-26T10:06:54.794Z,1.20
2022-07-26T10:09:25.660Z,1.40
2022-07-26T10:12:10.875Z,1.50
2022-07-26T10:14:51.463Z,1.20
2022-07-26T10:17:34.977Z,1.20
2022-07-26T10:20:16.924Z,1.10
2022-07-26T10:22:52.578Z,1.20
2022-07-26T10:25:20.342Z,1.30
2022-07-26T10:27:57.803Z,1.40
2022-07-26T10:30:33.764Z,1.30
2022-07-26T10:33:11.071Z,1.23
2022-07-26T10:35:43.352Z,1.10
2022-07-26T10:38:30.440Z,1.43
2022-07-26T10:41:39.977Z,1.10
2022-07-26T10:44:27.627Z,1.10
2022-07-26T10:47:02.300Z,1.07
2022-07-26T10:49:38.040Z,1.00
2022-07-26T10:52:20.907Z,1.27
2022-07-26T10:54:59.559Z,1.00
2022-07-26T10:57:44.919Z,1.10
2022-07-26T11:00:23.139Z,1.37
2022-07-26T11:02:57.534Z,1.00
2022-07-26T11:05:31.487Z,1.33
2022-07-26T11:08:08.344Z,1.20
2022-07-26T11:10:45.547Z,1.17
2022-07-26T11:13:25.983Z,1.20
2022-07-26T11:16:05.095Z,1.03
2022-07-26T11:18:38.267Z,1.00
2022-07-26T11:21:12.627Z,1.10
2022-07-26T11:23:44.389Z,0.93
2022-07-26T11:26:21.798Z,1.10
2022-07-26T11:28:58.552Z,1.03
2022-07-26T11:31:50.555Z,1.33
2022-07-26T11:34:31.045Z,1.33
2022-07-26T11:37:00.875Z,1.90
2022-07-26T11:39:34.789Z,1.23
2022-07-26T11:42:16.395Z,1.03
2022-07-26T11:44:45.627Z,1.00
2022-07-26T11:47:19.777Z,1.37
2022-07-26T11:50:00.727Z,1.30
2022-07-26T11:52:35.352Z,1.40
2022-07-26T11:55:02.484Z,1.13
2022-07-26T11:57:32.070Z,1.10
2022-07-26T12:00:00.916Z,1.10
2022-07-26T12:02:38.782Z,1.00
2022-07-26T12:05:20.551Z,1.03
2022-07-26T12:08:05.305Z,0.70
2022-07-26T12:10:32.895Z,1.37
2022-07-26T12:13:15.425Z,1.30
2022-07-26T12:16:00.975Z,1.23
2022-07-26T12:18:33.988Z,0.77
2022-07-26T12:21:09.071Z,1.10
2022-07-26T12:23:48.802Z,0.83
2022-07-26T12:26:28.756Z,1.10
2022-07-26T12:28:57.903Z,0.90
2022-07-26T12:31:34.289Z,0.97
2022-07-26T12:34:01.888Z,0.90
2022-07-26T12:36:30.230Z,0.97
2022-07-26T12:39:00.287Z,1.03
2022-07-26T12:41:39.130Z,1.10
2022-07-26T12:44:08.409Z,0.93
2022-07-26T12:46:37.015Z,1.50
2022-07-26T12:49:05.324Z,1.00
2022-07-26T12:51:32.760Z,1.23
2022-07-26T12:53:59.757Z,1.00
2022-07-26T12:56:26.789Z,1.40
2022-07-26T12:59:00.677Z,1.20
2022-07-26T13:01:29.481Z,1.17
2022-07-26T13:03:56.732Z,1.07
2022-07-26T13:06:23.753Z,1.10
2022-07-26T13:08:51.075Z,1.03
2022-07-26T13:11:18.254Z,1.00
2022-07-26T13:13:45.458Z,1.30
2022-07-26T13:16:12.646Z,1.00
2022-07-26T13:18:40.026Z,1.00
2022-07-26T13:21:07.373Z,1.50
2022-07-26T13:23:35.571Z,0.90
2022-07-26T13:26:04.070Z,1.37
2022-07-26T13:28:31.554Z,1.40
2022-07-26T13:30:58.835Z,0.80
2022-07-26T13:33:25.852Z,1.30
2022-07-26T13:35:53.112Z,0.87
2022-07-26T13:38:20.273Z,0.97
2022-07-26T13:40:47.593Z,1.07
2022-07-26T13:43:15.058Z,1.00
2022-07-26T13:45:42.442Z,0.90
2022-07-26T13:48:09.843Z,1.00
2022-07-26T13:50:36.836Z,0.80
2022-07-26T13:53:03.957Z,1.10
2022-07-26T13:55:31.061Z,0.90
2022-07-26T13:57:58.451Z,1.00
2022-07-26T14:00:28.568Z,0.93
2022-07-26T14:02:58.907Z,1.20
2022-07-26T14:05:27.825Z,0.80
2022-07-26T14:07:55.451Z,1.23
2022-07-26T14:10:24.240Z,0.90
2022-07-26T14:12:51.972Z,1.10
2022-07-26T14:15:22.632Z,1.30
2022-07-26T14:17:52.549Z,1.00
2022-07-26T14:20:20.949Z,1.10
2022-07-26T14:22:49.383Z,0.77
2022-07-26T14:25:16.620Z,1.07
2022-07-26T14:27:43.958Z,1.13
2022-07-26T14:30:12.147Z,0.90
2022-07-26T14:32:39.327Z,1.10
2022-07-26T14:35:07.354Z,0.87
2022-07-26T14:37:43.377Z,0.93
2022-07-26T14:40:17.165Z,1.00
2022-07-26T14:42:46.137Z,0.90
2022-07-26T14:45:14.116Z,1.30
2022-07-26T14:47:41.827Z,0.90
2022-07-26T14:50:11.217Z,0.90
2022-07-26T14:52:48.290Z,0.97
2022-07-26T14:55:19.332Z,0.70
2022-07-26T14:57:50.378Z,1.13
2022-07-26T15:00:18.565Z,1.23
2022-07-26T15:02:48.595Z,0.77
2022-07-26T15:05:17.498Z,1.00
2022-07-26T15:07:45.286Z,0.90
2022-07-26T15:10:13.976Z,1.00
2022-07-26T15:12:41.968Z,0.67
2022-07-26T15:15:10.534Z,1.20
2022-07-26T15:17:37.916Z,1.07
2022-07-26T15:20:06.914Z,1.30
2022-07-26T15:22:34.927Z,1.43
2022-07-26T15:25:02.445Z,1.17
2022-07-26T15:27:29.536Z,1.20
2022-07-26T15:30:02.820Z,0.90
2022-07-26T15:32:32.186Z,1.00
2022-07-26T15:34:59.619Z,1.00
2022-07-26T15:37:26.895Z,1.10
2022-07-26T15:39:53.902Z,1.17
2022-07-26T15:42:22.690Z,0.73
2022-07-26T15:44:50.871Z,1.30
2022-07-26T15:47:43.533Z,0.70
2022-07-26T15:50:09.684Z,0.80
2022-07-26T15:52:39.446Z,1.03
2022-07-26T15:55:08.828Z,0.90
2022-07-26T15:57:36.561Z,0.90
2022-07-26T16:00:11.793Z,0.90
2022-07-26T16:02:40.923Z,1.00
2022-07-26T16:05:09.236Z,1.23
2022-07-26T16:07:36.916Z,1.10
2022-07-26T16:10:05.137Z,0.70
2022-07-26T16:12:33.109Z,1.10
2022-07-26T16:15:00.329Z,1.20
2022-07-26T16:17:27.577Z,0.83
2022-07-26T16:19:54.855Z,0.70
2022-07-26T16:22:21.819Z,0.80
2022-07-26T16:24:49.387Z,0.80
2022-07-26T16:27:16.777Z,0.77
2022-07-26T16:29:43.907Z,0.90
2022-07-26T16:32:12.827Z,0.83
2022-07-26T16:34:40.893Z,1.00
2022-07-26T16:37:07.892Z,0.80
2022-07-26T16:39:35.874Z,0.97
2022-07-26T16:42:06.788Z,1.00
2022-07-26T16:44:36.107Z,0.90
2022-07-26T16:47:04.092Z,0.80
2022-07-26T16:49:31.451Z,1.07
2022-07-26T16:51:58.860Z,0.70
2022-07-26T16:54:25.974Z,1.00
2022-07-26T16:56:53.243Z,1.10
2022-07-26T16:59:20.303Z,0.60
2022-07-26T17:01:47.436Z,0.77
2022-07-26T17:04:14.670Z,0.70
2022-07-26T17:06:41.716Z,1.00
2022-07-26T17:09:15.945Z,0.90
2022-07-26T17:11:43.368Z,0.70
2022-07-26T17:14:10.584Z,0.60
2022-07-26T17:16:37.878Z,0.57
2022-07-26T17:19:04.934Z,0.80
2022-07-26T17:21:31.950Z,1.00
2022-07-26T17:24:02.614Z,0.70
2022-07-26T17:26:32.730Z,1.00
2022-07-26T17:29:03.517Z,1.10
2022-07-26T17:31:30.616Z,0.80
2022-07-26T17:33:59.383Z,0.90
2022-07-26T17:36:30.194Z,0.83
2022-07-26T17:38:58.442Z,1.03
2022-07-26T17:41:32.583Z,0.90
2022-07-26T17:44:02.396Z,0.83
2022-07-26T17:46:32.766Z,0.80
2022-07-26T17:49:00.618Z,0.90
2022-07-26T17:51:27.651Z,0.70
2022-07-26T17:53:55.010Z,1.13
2022-07-26T17:56:21.987Z,0.70
2022-07-26T17:58:48.961Z,1.00
2022-07-26T18:01:16.228Z,0.73
2022-07-26T18:03:43.197Z,0.67
2022-07-26T18:06:10.518Z,0.60
2022-07-26T18:08:37.975Z,0.77
2022-07-26T18:11:05.400Z,0.80
2022-07-26T18:13:32.325Z,1.00
2022-07-26T18:16:04.175Z,0.90
2022-07-26T18:18:32.939Z,1.03
2022-07-26T18:21:00.417Z,0.87
2022-07-26T18:23:27.323Z,0.70
2022-07-26T18:25:54.583Z,0.80
2022-07-26T18:28:21.716Z,1.00
2022-07-26T18:30:48.821Z,0.83
2022-07-26T18:33:16.519Z,0.70
2022-07-26T18:35:43.882Z,0.80
2022-07-26T18:38:11.234Z,0.93
2022-07-26T18:40:38.349Z,1.03
2022-07-26T18:43:05.363Z,0.67
2022-07-26T18:45:32.394Z,0.70
2022-07-26T18:47:59.868Z,1.43
2022-07-26T18:50:27.278Z,1.00
2022-07-26T18:52:59.237Z,1.17
2022-07-26T18:55:26.703Z,0.97
2022-07-26T18:57:53.766Z,1.07
2022-07-26T19:00:22.546Z,1.50
2022-07-26T19:02:51.711Z,1.10
2022-07-26T19:05:19.935Z,0.83
2022-07-26T19:07:46.956Z,0.90
2022-07-26T19:10:14.356Z,0.90
2022-07-26T19:12:42.263Z,0.80
2022-07-26T19:15:10.330Z,0.80
2022-07-26T19:17:38.209Z,0.90
2022-07-26T19:20:07.599Z,0.80
2022-07-26T19:22:35.409Z,0.70
2022-07-26T19:25:02.925Z,1.00
2022-07-26T19:27:29.890Z,0.90
2022-07-26T19:29:57.288Z,0.90
2022-07-26T19:32:25.706Z,0.97
2022-07-26T19:34:55.857Z,1.03
2022-07-26T19:37:22.893Z,0.90
2022-07-26T19:39:52.305Z,1.20
2022-07-26T19:42:20.148Z,0.97
2022-07-26T19:44:47.767Z,1.03
2022-07-26T19:47:15.264Z,0.80
2022-07-26T19:49:42.498Z,1.00
2022-07-26T19:52:11.756Z,1.20
2022-07-26T19:54:39.573Z,1.03
2022-07-26T19:57:08.343Z,1.03
2022-07-26T19:59:36.211Z,1.03
2022-07-26T20:02:05.565Z,1.10
2022-07-26T20:04:32.769Z,1.10
2022-07-26T20:06:59.797Z,1.27
2022-07-26T20:09:27.599Z,0.80
2022-07-26T20:11:54.538Z,1.00
2022-07-26T20:14:22.002Z,0.90
2022-07-26T20:16:54.252Z,1.03
2022-07-26T20:19:24.783Z,0.87
2022-07-26T20:21:51.715Z,0.90
2022-07-26T20:24:19.191Z,1.30
2022-07-26T20:26:46.164Z,0.80
2022-07-26T20:29:13.480Z,1.10
2022-07-26T20:31:40.789Z,1.30
2022-07-26T20:34:07.959Z,0.90
2022-07-26T20:36:34.869Z,1.30
2022-07-26T20:39:02.258Z,0.90
2022-07-26T20:41:33.972Z,1.07
2022-07-26T20:44:02.029Z,1.37
2022-07-26T20:46:29.034Z,1.40
2022-07-26T20:48:56.227Z,1.20
2022-07-26T20:51:23.598Z,1.67
2022-07-26T20:53:50.776Z,1.47
2022-07-26T20:56:17.901Z,1.30
2022-07-26T20:58:44.848Z,1.23
2022-07-26T21:01:14.330Z,1.60
2022-07-26T21:03:41.325Z,1.20
2022-07-26T21:06:08.520Z,1.53
2022-07-26T21:08:36.364Z,1.27
2022-07-26T21:11:03.451Z,1.00
2022-07-26T21:13:34.165Z,1.30
2022-07-26T21:16:01.341Z,1.40
2022-07-26T21:18:32.672Z,0.90
2022-07-26T21:21:01.682Z,1.27
2022-07-26T21:23:28.687Z,1.00
2022-07-26T21:26:00.809Z,1.27
2022-07-26T21:28:28.539Z,0.97
2022-07-26T21:30:55.808Z,1.00
2022-07-26T21:33:23.217Z,1.23
2022-07-26T21:35:50.442Z,0.93
2022-07-26T21:38:17.469Z,1.43
2022-07-26T21:40:44.688Z,0.93
2022-07-26T21:43:11.639Z,0.83
2022-07-26T21:45:40.028Z,1.20
2022-07-26T21:48:07.364Z,0.90
2022-07-26T21:50:34.343Z,0.87
2022-07-26T21:53:01.667Z,1.70
2022-07-26T21:55:28.736Z,0.80
2022-07-26T21:57:56.001Z,1.10
2022-07-26T22:00:23.293Z,0.90
2022-07-26T22:02:50.479Z,1.13
2022-07-26T22:05:38.235Z,1.10
2022-07-26T22:08:11.394Z,0.80
2022-07-26T22:10:44.028Z,1.33
2022-07-26T22:13:12.465Z,0.80
2022-07-26T22:15:39.643Z,1.07
2022-07-26T22:18:09.581Z,1.10
2022-07-26T22:20:37.339Z,1.20
2022-07-26T22:23:11.033Z,1.17
2022-07-26T22:25:38.993Z,1.40
2022-07-26T22:28:08.165Z,1.20
2022-07-26T22:30:35.930Z,1.00
2022-07-26T22:33:07.845Z,1.27
2022-07-26T22:35:36.548Z,1.03
2022-07-26T22:38:13.565Z,1.10
2022-07-26T22:40:43.008Z,0.73
2022-07-26T22:43:11.321Z,1.53
2022-07-26T22:45:39.065Z,1.30
2022-07-26T22:48:06.640Z,1.43
2022-07-26T22:50:34.371Z,1.20
2022-07-26T22:53:01.804Z,1.30
2022-07-26T22:55:29.713Z,1.10
2022-07-26T22:57:56.967Z,1.20
2022-07-26T23:00:24.137Z,0.90
2022-07-26T23:02:51.458Z,1.00
2022-07-26T23:05:19.347Z,1.13
2022-07-26T23:07:48.068Z,1.00
2022-07-26T23:10:16.481Z,1.60
2022-07-26T23:12:43.777Z,1.20
2022-07-26T23:15:13.186Z,1.13
2022-07-26T23:17:40.832Z,1.20
2022-07-26T23:20:09.891Z,1.30
2022-07-26T23:22:38.868Z,0.90
2022-07-26T23:25:06.893Z,1.87
2022-07-26T23:27:34.083Z,1.40
2022-07-26T23:30:01.286Z,1.40
2022-07-26T23:32:28.441Z,1.63
2022-07-26T23:34:55.596Z,1.30
2022-07-26T23:37:22.522Z,1.00
2022-07-26T23:39:49.704Z,1.40
2022-07-26T23:42:16.885Z,1.50
2022-07-26T23:44:43.822Z,1.17
2022-07-26T23:47:10.830Z,1.47
2022-07-26T23:49:37.972Z,1.23
2022-07-26T23:52:05.261Z,1.37
2022-07-26T23:54:32.409Z,2.10
2022-07-26T23:56:59.343Z,1.37
2022-07-26T23:59:26.273Z,1.47
